DLH55C EDDM-EKCH
Flight info
| Callsign | DLH55C |
|---|---|
| Flight time | 1h 12m |
| Altitude | 39000 |
| Route | INPUD3Q INPUD Y102 UPALA M726 LASGA DCT BKD DCT LUWIL DCT BERIM DCT MAKEL N851 GESKA Z711 MONAK |
| Aircraft | A20N/M-SDE2E3FGHIRWXY/LB1 |
Departure
| Time | 2026-05-04 16:19 |
|---|---|
| Airport | Munich Airport (EDDM) |
Arrival
| Time | 2026-05-04 17:31 |
|---|---|
| Airport | Copenhagen Kastrup Airport (EKCH) |
| Time | Latitude | Longitude | Altitude | Speed | Heading |
|---|---|---|---|---|---|
| 2026-05-04 15:45 | 48.35594 | 11.79272 | 1477 ft | 0 kts | 263° |
| 2026-05-04 16:01 | 48.35594 | 11.79277 | 1477 ft | 2 kts | 264° |
| 2026-05-04 16:01 | 48.35596 | 11.79299 | 1477 ft | 2 kts | 263° |
| 2026-05-04 16:01 | 48.35598 | 11.79321 | 1476 ft | 2 kts | 264° |
| 2026-05-04 16:02 | 48.35600 | 11.79344 | 1476 ft | 2 kts | 263° |
| 2026-05-04 16:02 | 48.35601 | 11.79366 | 1476 ft | 2 kts | 263° |
| 2026-05-04 16:02 | 48.35601 | 11.79411 | 1476 ft | 2 kts | 301° |
| 2026-05-04 16:03 | 48.35590 | 11.79428 | 1476 ft | 2 kts | 332° |
| 2026-05-04 16:03 | 48.35581 | 11.79433 | 1476 ft | 0 kts | 351° |
| 2026-05-04 16:03 | 48.35574 | 11.79434 | 1476 ft | 0 kts | 354° |
| 2026-05-04 16:05 | 48.35575 | 11.79434 | 1476 ft | 0 kts | 354° |
| 2026-05-04 16:06 | 48.35593 | 11.79439 | 1476 ft | 4 kts | 22° |
| 2026-05-04 16:06 | 48.35743 | 11.79472 | 1474 ft | 12 kts | 354° |
| 2026-05-04 16:07 | 48.35836 | 11.79456 | 1473 ft | 0 kts | 353° |
| 2026-05-04 16:07 | 48.35855 | 11.79453 | 1473 ft | 7 kts | 359° |
| 2026-05-04 16:08 | 48.35931 | 11.79496 | 1472 ft | 13 kts | 18° |
| 2026-05-04 16:08 | 48.36007 | 11.79492 | 1472 ft | 0 kts | 353° |
| 2026-05-04 16:09 | 48.36042 | 11.79486 | 1471 ft | 6 kts | 353° |
| 2026-05-04 16:09 | 48.36096 | 11.79374 | 1472 ft | 10 kts | 264° |
| 2026-05-04 16:10 | 48.36074 | 11.79062 | 1473 ft | 17 kts | 263° |
| 2026-05-04 16:11 | 48.36024 | 11.78416 | 1476 ft | 25 kts | 263° |
| 2026-05-04 16:11 | 48.36002 | 11.78148 | 1477 ft | 24 kts | 265° |
| 2026-05-04 16:12 | 48.35944 | 11.77393 | 1478 ft | 27 kts | 263° |
| 2026-05-04 16:12 | 48.36021 | 11.76821 | 1478 ft | 16 kts | 352° |
| 2026-05-04 16:13 | 48.36095 | 11.76806 | 1478 ft | 3 kts | 352° |
| 2026-05-04 16:13 | 48.36155 | 11.76795 | 1478 ft | 5 kts | 353° |
| 2026-05-04 16:14 | 48.36280 | 11.76799 | 1477 ft | 10 kts | 75° |
| 2026-05-04 16:14 | 48.36283 | 11.76837 | 1477 ft | 0 kts | 83° |
| 2026-05-04 16:18 | 48.36298 | 11.77037 | 1477 ft | 54 kts | 83° |
| 2026-05-04 16:18 | 48.36370 | 11.77974 | 1474 ft | 123 kts | 83° |
| 2026-05-04 16:19 | 48.36770 | 11.83304 | 2771 ft | 186 kts | 82° |
| 2026-05-04 16:19 | 48.37659 | 11.86839 | 3926 ft | 200 kts | 37° |
| 2026-05-04 16:20 | 48.41856 | 11.85266 | 5155 ft | 263 kts | 323° |
| 2026-05-04 16:20 | 48.44553 | 11.81124 | 6224 ft | 288 kts | 315° |
| 2026-05-04 16:21 | 48.49044 | 11.75253 | 8816 ft | 294 kts | 334° |
| 2026-05-04 16:22 | 48.52865 | 11.72767 | 10367 ft | 304 kts | 335° |
| 2026-05-04 16:22 | 48.59085 | 11.68448 | 11667 ft | 350 kts | 333° |
| 2026-05-04 16:23 | 48.65764 | 11.63590 | 13847 ft | 361 kts | 332° |
| 2026-05-04 16:24 | 48.74940 | 11.56837 | 16589 ft | 374 kts | 331° |
| 2026-05-04 16:25 | 48.79668 | 11.53342 | 17874 ft | 380 kts | 331° |
| 2026-05-04 16:26 | 48.89302 | 11.46200 | 20297 ft | 392 kts | 332° |
| 2026-05-04 16:26 | 48.96738 | 11.40668 | 22060 ft | 401 kts | 331° |
| 2026-05-04 16:27 | 49.01776 | 11.36908 | 23191 ft | 406 kts | 331° |
| 2026-05-04 16:28 | 49.09433 | 11.31176 | 24709 ft | 417 kts | 330° |
| 2026-05-04 16:28 | 49.17363 | 11.25218 | 26043 ft | 427 kts | 330° |
| 2026-05-04 16:29 | 49.29296 | 11.22127 | 27742 ft | 449 kts | 358° |
| 2026-05-04 16:30 | 49.38741 | 11.22310 | 28899 ft | 454 kts | 357° |
| 2026-05-04 16:31 | 49.45032 | 11.22380 | 29842 ft | 452 kts | 357° |
| 2026-05-04 16:31 | 49.54384 | 11.22456 | 31141 ft | 448 kts | 357° |
| 2026-05-04 16:32 | 49.63726 | 11.22488 | 32265 ft | 446 kts | 356° |
| 2026-05-04 16:33 | 49.69907 | 11.22489 | 33015 ft | 444 kts | 356° |
| 2026-05-04 16:33 | 49.76054 | 11.22498 | 33729 ft | 442 kts | 356° |
| 2026-05-04 16:34 | 49.82226 | 11.22534 | 34391 ft | 441 kts | 356° |
| 2026-05-04 16:34 | 49.85290 | 11.22555 | 34733 ft | 440 kts | 356° |
| 2026-05-04 16:35 | 49.94410 | 11.22611 | 35517 ft | 437 kts | 356° |
| 2026-05-04 16:35 | 50.03500 | 11.22660 | 36149 ft | 436 kts | 356° |
| 2026-05-04 16:36 | 50.06550 | 11.22677 | 36343 ft | 436 kts | 356° |
| 2026-05-04 16:36 | 50.12638 | 11.22715 | 36702 ft | 437 kts | 356° |
| 2026-05-04 16:37 | 50.18720 | 11.22753 | 37086 ft | 437 kts | 356° |
| 2026-05-04 16:37 | 50.21748 | 11.22771 | 37320 ft | 436 kts | 356° |
| 2026-05-04 16:37 | 50.27821 | 11.22804 | 37641 ft | 438 kts | 356° |
| 2026-05-04 16:38 | 50.33879 | 11.22837 | 37933 ft | 439 kts | 356° |
| 2026-05-04 16:39 | 50.49222 | 11.24325 | 37970 ft | 443 kts | 0° |
| 2026-05-04 16:40 | 50.61494 | 11.25727 | 37968 ft | 443 kts | 0° |
| 2026-05-04 16:41 | 50.76825 | 11.27474 | 37949 ft | 443 kts | 360° |
| 2026-05-04 16:43 | 50.92185 | 11.29234 | 37937 ft | 443 kts | 360° |
| 2026-05-04 16:43 | 51.01375 | 11.30292 | 37936 ft | 442 kts | 360° |
| 2026-05-04 16:45 | 51.19730 | 11.32417 | 37938 ft | 443 kts | 359° |
| 2026-05-04 16:46 | 51.35076 | 11.34209 | 37940 ft | 442 kts | 359° |
| 2026-05-04 16:47 | 51.47349 | 11.35649 | 37938 ft | 442 kts | 359° |
| 2026-05-04 16:48 | 51.59633 | 11.37101 | 37939 ft | 443 kts | 359° |
| 2026-05-04 16:49 | 51.71875 | 11.38552 | 37936 ft | 443 kts | 359° |
| 2026-05-04 16:50 | 51.84162 | 11.40016 | 37944 ft | 443 kts | 359° |
| 2026-05-04 16:51 | 51.93358 | 11.41119 | 37942 ft | 442 kts | 359° |
| 2026-05-04 16:52 | 52.05620 | 11.42597 | 37930 ft | 442 kts | 359° |
| 2026-05-04 16:53 | 52.14826 | 11.43711 | 37937 ft | 442 kts | 359° |
| 2026-05-04 16:54 | 52.27116 | 11.45207 | 37932 ft | 442 kts | 359° |
| 2026-05-04 16:55 | 52.45529 | 11.47458 | 37944 ft | 442 kts | 359° |
| 2026-05-04 16:56 | 52.60858 | 11.49350 | 37940 ft | 443 kts | 359° |
| 2026-05-04 16:57 | 52.70102 | 11.50498 | 37943 ft | 442 kts | 359° |
| 2026-05-04 16:58 | 52.82391 | 11.52025 | 37942 ft | 442 kts | 359° |
| 2026-05-04 17:00 | 53.00803 | 11.54229 | 37944 ft | 440 kts | 355° |
| 2026-05-04 17:01 | 53.15858 | 11.51979 | 37942 ft | 433 kts | 346° |
| 2026-05-04 17:02 | 53.27808 | 11.49294 | 37928 ft | 433 kts | 346° |
| 2026-05-04 17:03 | 53.36768 | 11.47293 | 37934 ft | 432 kts | 346° |
| 2026-05-04 17:03 | 53.45750 | 11.46073 | 37943 ft | 438 kts | 354° |
| 2026-05-04 17:04 | 53.57937 | 11.46413 | 37957 ft | 437 kts | 355° |
| 2026-05-04 17:05 | 53.70130 | 11.46974 | 37954 ft | 440 kts | 360° |
| 2026-05-04 17:06 | 53.79216 | 11.49762 | 37952 ft | 446 kts | 9° |
| 2026-05-04 17:07 | 53.87196 | 11.53411 | 37946 ft | 446 kts | 10° |
| 2026-05-04 17:07 | 53.94149 | 11.56602 | 37931 ft | 444 kts | 9° |
| 2026-05-04 17:08 | 53.97131 | 11.57972 | 37663 ft | 440 kts | 9° |
| 2026-05-04 17:08 | 54.02992 | 11.60661 | 36602 ft | 437 kts | 9° |
| 2026-05-04 17:08 | 54.05928 | 11.62011 | 36218 ft | 435 kts | 9° |
| 2026-05-04 17:09 | 54.08849 | 11.63352 | 35821 ft | 435 kts | 8° |
| 2026-05-04 17:09 | 54.11745 | 11.64681 | 35386 ft | 436 kts | 8° |
| 2026-05-04 17:09 | 54.14687 | 11.66038 | 34871 ft | 437 kts | 8° |
| 2026-05-04 17:10 | 54.20600 | 11.68759 | 33463 ft | 441 kts | 8° |
| 2026-05-04 17:10 | 54.29525 | 11.72886 | 31134 ft | 451 kts | 8° |
| 2026-05-04 17:11 | 54.32554 | 11.74290 | 30276 ft | 456 kts | 8° |
| 2026-05-04 17:11 | 54.35628 | 11.75715 | 29488 ft | 458 kts | 8° |
| 2026-05-04 17:11 | 54.41719 | 11.78644 | 28960 ft | 461 kts | 14° |
| 2026-05-04 17:12 | 54.44626 | 11.81082 | 28965 ft | 471 kts | 25° |
| 2026-05-04 17:13 | 54.58525 | 11.96181 | 28961 ft | 471 kts | 26° |
| 2026-05-04 17:14 | 54.69689 | 12.07911 | 28959 ft | 471 kts | 26° |
| 2026-05-04 17:14 | 54.75291 | 12.13798 | 27945 ft | 472 kts | 26° |
| 2026-05-04 17:15 | 54.78090 | 12.16748 | 27280 ft | 470 kts | 26° |
| 2026-05-04 17:15 | 54.83602 | 12.22568 | 25965 ft | 465 kts | 26° |
| 2026-05-04 17:16 | 54.89101 | 12.28396 | 24645 ft | 459 kts | 26° |
| 2026-05-04 17:16 | 54.97179 | 12.36988 | 22728 ft | 451 kts | 27° |
| 2026-05-04 17:17 | 54.99852 | 12.39842 | 22084 ft | 448 kts | 27° |
| 2026-05-04 17:17 | 55.07703 | 12.48250 | 20171 ft | 429 kts | 27° |
| 2026-05-04 17:18 | 55.10185 | 12.50922 | 19539 ft | 413 kts | 27° |
| 2026-05-04 17:18 | 55.14883 | 12.55982 | 18271 ft | 383 kts | 27° |
| 2026-05-04 17:19 | 55.19244 | 12.60687 | 17002 ft | 358 kts | 27° |
| 2026-05-04 17:19 | 55.23416 | 12.64947 | 15738 ft | 335 kts | 19° |
| 2026-05-04 17:20 | 55.27630 | 12.67596 | 14505 ft | 327 kts | 12° |
| 2026-05-04 17:20 | 55.31970 | 12.70000 | 13261 ft | 329 kts | 12° |
| 2026-05-04 17:20 | 55.34154 | 12.71234 | 12629 ft | 324 kts | 13° |
| 2026-05-04 17:21 | 55.38323 | 12.73618 | 11381 ft | 309 kts | 13° |
| 2026-05-04 17:21 | 55.42315 | 12.75907 | 10216 ft | 293 kts | 13° |
| 2026-05-04 17:22 | 55.44226 | 12.77004 | 9719 ft | 284 kts | 13° |
| 2026-05-04 17:22 | 55.46071 | 12.78061 | 9196 ft | 277 kts | 13° |
| 2026-05-04 17:23 | 55.51410 | 12.81125 | 7641 ft | 265 kts | 13° |
| 2026-05-04 17:23 | 55.53155 | 12.82131 | 7147 ft | 263 kts | 13° |
| 2026-05-04 17:23 | 55.56560 | 12.84211 | 6109 ft | 255 kts | 17° |
| 2026-05-04 17:24 | 55.58175 | 12.85363 | 5706 ft | 246 kts | 18° |
| 2026-05-04 17:24 | 55.62767 | 12.88810 | 4230 ft | 235 kts | 20° |
| 2026-05-04 17:25 | 55.64228 | 12.89998 | 3997 ft | 231 kts | 20° |
| 2026-05-04 17:25 | 55.67185 | 12.92206 | 3972 ft | 225 kts | 4° |
| 2026-05-04 17:26 | 55.70200 | 12.91720 | 3384 ft | 215 kts | 340° |
| 2026-05-04 17:26 | 55.73192 | 12.87101 | 2954 ft | 172 kts | 281° |
| 2026-05-04 17:27 | 55.72666 | 12.83004 | 2746 ft | 179 kts | 239° |
| 2026-05-04 17:27 | 55.70927 | 12.79756 | 2236 ft | 182 kts | 228° |
| 2026-05-04 17:28 | 55.69141 | 12.76980 | 1723 ft | 163 kts | 226° |
| 2026-05-04 17:29 | 55.66655 | 12.73142 | 1080 ft | 149 kts | 226° |
| 2026-05-04 17:29 | 55.64297 | 12.69499 | 479 ft | 148 kts | 224° |
| 2026-05-04 17:30 | 55.62120 | 12.66103 | 17 ft | 122 kts | 221° |
| 2026-05-04 17:31 | 55.61280 | 12.64814 | 24 ft | 33 kts | 220° |
| 2026-05-04 17:31 | 55.60730 | 12.63935 | 23 ft | 40 kts | 233° |
| 2026-05-04 17:32 | 55.60750 | 12.63658 | 22 ft | 0 kts | 309° |
| 2026-05-04 17:34 | 55.60905 | 12.63681 | 22 ft | 17 kts | 35° |
| 2026-05-04 17:34 | 55.61029 | 12.63824 | 22 ft | 23 kts | 34° |
| 2026-05-04 17:35 | 55.61255 | 12.64084 | 22 ft | 10 kts | 33° |
| 2026-05-04 17:35 | 55.61399 | 12.64249 | 22 ft | 14 kts | 34° |
| 2026-05-04 17:35 | 55.61481 | 12.64343 | 22 ft | 14 kts | 33° |
| 2026-05-04 17:36 | 55.61562 | 12.64436 | 22 ft | 13 kts | 34° |
| 2026-05-04 17:36 | 55.61639 | 12.64526 | 22 ft | 14 kts | 33° |
| 2026-05-04 17:36 | 55.61733 | 12.64633 | 22 ft | 16 kts | 33° |
| 2026-05-04 17:36 | 55.61827 | 12.64741 | 21 ft | 15 kts | 32° |
| 2026-05-04 17:37 | 55.61917 | 12.64845 | 21 ft | 15 kts | 34° |
| 2026-05-04 17:37 | 55.61941 | 12.64873 | 21 ft | 0 kts | 33° |
| 2026-05-04 17:37 | 55.61949 | 12.64882 | 21 ft | 5 kts | 33° |
| 2026-05-04 17:37 | 55.62001 | 12.64942 | 21 ft | 12 kts | 33° |
| 2026-05-04 17:38 | 55.62077 | 12.65027 | 20 ft | 12 kts | 33° |
| 2026-05-04 17:38 | 55.62132 | 12.65092 | 20 ft | 6 kts | 34° |
| 2026-05-04 17:38 | 55.62178 | 12.65147 | 20 ft | 11 kts | 34° |
| 2026-05-04 17:38 | 55.62250 | 12.65148 | 20 ft | 11 kts | 305° |
| 2026-05-04 17:39 | 55.62350 | 12.64871 | 21 ft | 13 kts | 303° |
| 2026-05-04 17:39 | 55.62400 | 12.64738 | 21 ft | 12 kts | 304° |
| 2026-05-04 17:39 | 55.62442 | 12.64623 | 21 ft | 7 kts | 303° |
| 2026-05-04 17:40 | 55.62469 | 12.64551 | 21 ft | 7 kts | 304° |
| 2026-05-04 17:40 | 55.62508 | 12.64447 | 21 ft | 12 kts | 303° |
| 2026-05-04 17:40 | 55.62563 | 12.64296 | 21 ft | 16 kts | 301° |
| 2026-05-04 17:40 | 55.62623 | 12.64133 | 21 ft | 15 kts | 304° |
| 2026-05-04 17:41 | 55.62676 | 12.63994 | 21 ft | 8 kts | 305° |
| 2026-05-04 17:41 | 55.62715 | 12.64008 | 21 ft | 6 kts | 37° |
| 2026-05-04 17:41 | 55.62737 | 12.64035 | 21 ft | 1 kts | 33° |
| 2026-05-04 17:41 | 55.62741 | 12.64040 | 21 ft | 0 kts | 33° |